Time;durP1;ratioP1;P1;durP2;ratioP2;P2;SDS_P1;SDS_P2;PMS_P1;PMS_P2;Temp;Humidity;BMP_temperature;BMP_pressure;BME280_temperature;BME280_humidity;BME280_pressure;Samples;Min_cycle;Max_cycle;Signal;HPM_P1;HPM_P2
2023/06/05 00:01:40;;;;;;;3.88;1.88;;;;;;;15.46;76.57;100319.34;6197189;28;20054;-71
2023/06/05 00:04:44;;;;;;;4.57;1.60;;;;;;;15.37;77.00;100320.91;6214521;28;20075;-70
2023/06/05 00:07:45;;;;;;;4.63;2.13;;;;;;;15.28;76.48;100317.19;6324107;28;20055;-70
2023/06/05 00:10:46;;;;;;;2.40;1.58;;;;;;;15.31;76.40;100324.00;6323903;28;20051;-71
2023/06/05 00:13:47;;;;;;;3.85;1.65;;;;;;;15.29;77.09;100323.28;6323639;28;20143;-70
2023/06/05 00:16:49;;;;;;;2.80;1.60;;;;;;;15.27;77.62;100323.38;6303112;28;20067;-71
2023/06/05 00:19:50;;;;;;;2.72;1.60;;;;;;;15.21;77.11;100318.59;6200883;28;20047;-71
2023/06/05 00:22:51;;;;;;;5.07;1.70;;;;;;;15.19;77.05;100314.41;6195509;28;20481;-70
2023/06/05 00:25:51;;;;;;;7.20;1.90;;;;;;;15.16;78.31;100318.13;6239404;28;20097;-70
2023/06/05 00:28:55;;;;;;;1.80;1.52;;;;;;;15.21;76.90;100317.78;6323220;28;20044;-70
2023/06/05 00:31:55;;;;;;;2.05;1.67;;;;;;;15.22;76.69;100317.66;6321870;28;20052;-70
2023/06/05 00:34:56;;;;;;;2.60;1.65;;;;;;;15.26;76.42;100318.28;6323719;28;20055;-69
2023/06/05 00:37:57;;;;;;;4.47;2.10;;;;;;;15.28;76.19;100319.81;6314963;28;20077;-70
2023/06/05 00:40:58;;;;;;;2.30;1.67;;;;;;;15.27;77.41;100317.31;6309465;28;20056;-70
2023/06/05 00:43:58;;;;;;;3.40;1.60;;;;;;;15.19;78.25;100315.25;6322626;28;20472;-70
2023/06/05 00:47:03;;;;;;;3.97;1.95;;;;;;;15.07;78.60;100303.91;6235470;28;20054;-70
2023/06/05 00:50:06;;;;;;;3.95;1.98;;;;;;;15.05;78.56;100303.19;6180236;28;20054;-70
2023/06/05 00:53:07;;;;;;;3.22;1.58;;;;;;;15.07;78.12;100301.28;6310483;28;20044;-70
2023/06/05 00:56:11;;;;;;;2.90;1.77;;;;;;;15.05;78.43;100305.81;6321969;28;20070;-71
2023/06/05 00:59:13;;;;;;;5.35;1.95;;;;;;;15.03;77.95;100307.72;6323599;28;20083;-70
2023/06/05 01:02:14;;;;;;;4.70;1.73;;;;;;;15.08;78.06;100309.97;6263907;28;20054;-70
2023/06/05 01:05:15;;;;;;;2.63;1.83;;;;;;;15.08;77.68;100302.09;6195824;28;20502;-70
2023/06/05 01:08:25;;;;;;;2.28;1.52;;;;;;;15.10;78.76;100306.28;6195959;28;20046;-70
2023/06/05 01:11:32;;;;;;;2.50;1.80;;;;;;;15.09;78.89;100307.25;6217730;28;20541;-70
2023/06/05 01:14:36;;;;;;;5.53;1.80;;;;;;;15.05;78.92;100303.19;6195968;28;20101;-70
2023/06/05 01:17:37;;;;;;;2.08;1.63;;;;;;;15.04;78.94;100300.66;6194571;28;20792;-70
2023/06/05 01:20:39;;;;;;;4.10;1.67;;;;;;;15.02;78.36;100297.31;6195908;28;20141;-70
2023/06/05 01:23:44;;;;;;;2.35;1.38;;;;;;;15.00;77.50;100293.97;6209109;28;20049;-70
2023/06/05 01:27:03;;;;;;;18.15;1.90;;;;;;;14.91;78.17;100296.34;6195326;28;20141;-70
2023/06/05 01:30:10;;;;;;;3.67;1.92;;;;;;;14.96;77.92;100297.78;6193688;28;20046;-69
2023/06/05 01:33:24;;;;;;;2.60;1.85;;;;;;;14.91;77.59;100301.59;6225959;28;20391;-71
2023/06/05 01:36:28;;;;;;;3.10;1.65;;;;;;;14.96;78.41;100297.78;6302579;28;20071;-70
2023/06/05 01:39:30;;;;;;;3.03;1.63;;;;;;;14.91;79.73;100298.13;6195528;28;20140;-70
2023/06/05 01:42:30;;;;;;;2.78;1.52;;;;;;;14.88;79.31;100306.22;6195433;28;20050;-70
2023/06/05 01:45:32;;;;;;;4.20;1.85;;;;;;;14.82;78.75;100297.00;6306662;28;20399;-70
2023/06/05 01:48:33;;;;;;;2.07;1.70;;;;;;;14.85;79.90;100303.84;6322287;28;20055;-70
2023/06/05 01:51:35;;;;;;;5.07;1.90;;;;;;;14.80;79.81;100298.09;6321222;28;20056;-70
2023/06/05 01:54:36;;;;;;;;;;;;;;;14.75;80.22;100298.44;6264190;28;20050;-70
2023/06/05 01:57:37;;;;;;;4.32;1.90;;;;;;;14.66;76.96;100304.34;6194782;28;19926;-70
2023/06/05 02:00:37;;;;;;;3.00;1.70;;;;;;;14.68;79.15;100303.31;6195219;28;20133;-70
2023/06/05 02:03:38;;;;;;;2.22;1.55;;;;;;;14.64;79.45;100301.88;6196088;28;20413;-70
2023/06/05 02:06:42;;;;;;;2.83;1.58;;;;;;;14.60;80.69;100302.19;6197306;28;20057;-70
2023/06/05 02:09:46;;;;;;;2.10;1.58;;;;;;;14.55;80.74;100304.28;6194610;28;20051;-70
2023/06/05 02:12:47;;;;;;;3.67;1.70;;;;;;;14.51;78.84;100301.88;6193149;28;20054;-70
2023/06/05 02:15:52;;;;;;;2.90;1.85;;;;;;;14.46;78.08;100298.75;6265728;28;20048;-70
2023/06/05 02:18:57;;;;;;;3.92;1.70;;;;;;;14.46;79.41;100297.94;6321590;28;20476;-71
2023/06/05 02:21:57;;;;;;;12.70;2.00;;;;;;;14.42;78.04;100293.84;6315075;28;20059;-71
2023/06/05 02:24:58;;;;;;;3.03;1.60;;;;;;;14.34;78.18;100294.41;6239912;28;20048;-71
2023/06/05 02:28:01;;;;;;;5.88;1.70;;;;;;;14.30;78.59;100288.53;6321613;28;20058;-71
2023/06/05 02:31:02;;;;;;;2.40;1.63;;;;;;;14.27;77.65;100298.44;6321452;28;20055;-71
2023/06/05 02:34:03;;;;;;;2.67;1.50;;;;;;;14.26;77.75;100302.84;6274348;28;20074;-71
2023/06/05 02:37:04;;;;;;;2.88;1.65;;;;;;;14.24;77.38;100302.09;6201204;28;20050;-70
2023/06/05 02:40:07;;;;;;;3.67;1.55;;;;;;;14.15;78.45;100301.94;6194572;28;20054;-71
2023/06/05 02:43:08;;;;;;;3.25;1.50;;;;;;;14.10;77.67;100295.25;6194314;28;20061;-70
2023/06/05 02:46:09;;;;;;;5.78;1.58;;;;;;;14.08;78.26;100298.91;6199921;28;20050;-70
2023/06/05 02:49:11;;;;;;;2.05;1.50;;;;;;;14.06;79.50;100304.28;6194177;28;20452;-70
2023/06/05 02:52:12;;;;;;;4.43;1.77;;;;;;;14.12;80.58;100297.75;6194342;28;20057;-71
2023/06/05 02:55:13;;;;;;;2.97;1.80;;;;;;;14.09;79.93;100301.44;6190805;28;20054;-71
2023/06/05 02:58:15;;;;;;;2.85;1.80;;;;;;;14.02;77.14;100294.97;6242261;28;20486;-70
2023/06/05 03:01:16;;;;;;;3.60;2.03;;;;;;;14.06;78.00;100296.41;6194157;28;20085;-71
2023/06/05 03:04:24;;;;;;;3.58;1.50;;;;;;;14.07;75.80;100298.09;6178923;28;20050;-70
2023/06/05 03:07:25;;;;;;;5.70;1.70;;;;;;;14.07;74.12;100289.38;6191106;28;20115;-71
2023/06/05 03:10:28;;;;;;;3.70;1.30;;;;;;;14.06;74.97;100295.56;6195621;28;20050;-71
2023/06/05 03:13:32;;;;;;;3.13;1.65;;;;;;;14.04;74.82;100293.06;6197812;28;20143;-71
2023/06/05 03:16:37;;;;;;;2.15;1.45;;;;;;;14.03;77.33;100296.63;6197889;28;20062;-71
2023/06/05 03:19:38;;;;;;;1.60;1.38;;;;;;;14.07;80.21;100294.63;6204949;28;20050;-71
2023/06/05 03:22:39;;;;;;;4.95;1.58;;;;;;;14.01;76.97;100298.53;6196556;28;20179;-70
2023/06/05 03:25:42;;;;;;;2.63;1.60;;;;;;;14.00;75.56;100291.63;6196655;28;20195;-70
2023/06/05 03:28:43;;;;;;;3.08;1.40;;;;;;;14.05;76.28;100297.34;6264001;28;20052;-70
2023/06/05 03:31:44;;;;;;;3.95;1.67;;;;;;;14.05;77.71;100297.34;6195838;28;20133;-70
2023/06/05 03:34:48;;;;;;;2.15;1.42;;;;;;;14.08;77.22;100296.28;6195183;28;20490;-71
2023/06/05 03:37:51;;;;;;;4.50;1.65;;;;;;;14.09;76.06;100298.81;6204167;28;20040;-71
2023/06/05 03:40:51;;;;;;;3.53;1.92;;;;;;;14.13;73.74;100304.69;6192525;28;20471;-71
2023/06/05 03:43:53;;;;;;;5.80;1.73;;;;;;;14.18;75.77;100291.22;6273636;28;20063;-70
2023/06/05 03:46:54;;;;;;;3.40;1.80;;;;;;;14.21;72.82;100297.09;6193328;28;20481;-71
2023/06/05 03:49:55;;;;;;;4.10;2.38;;;;;;;14.27;70.59;100294.03;6269188;28;20056;-71
2023/06/05 03:53:02;;;;;;;6.95;3.70;;;;;;;14.35;71.30;100305.75;6280238;28;20085;-71
2023/06/05 03:56:05;;;;;;;12.63;6.38;;;;;;;14.41;70.34;100306.16;6196080;28;20050;-70
2023/06/05 03:59:09;;;;;;;20.38;7.50;;;;;;;14.55;74.63;100305.13;6204090;28;20065;-71
2023/06/05 04:02:09;;;;;;;11.98;4.78;;;;;;;14.60;68.36;100318.78;6200730;28;20121;-71
2023/06/05 04:05:12;;;;;;;11.63;5.10;;;;;;;14.75;70.13;100314.19;6196639;28;20505;-70
2023/06/05 04:08:13;;;;;;;;;;;;;;;14.84;67.45;100315.28;6197400;28;20077;-70
2023/06/05 04:11:15;;;;;;;13.75;5.50;;;;;;;14.93;68.18;100311.13;6195367;28;19922;-70
2023/06/05 04:14:16;;;;;;;15.98;5.70;;;;;;;14.96;67.08;100309.13;6268621;28;20104;-70
2023/06/05 04:17:18;;;;;;;8.00;3.72;;;;;;;15.02;65.48;100308.66;6206674;28;20058;-69
2023/06/05 04:20:20;;;;;;;13.60;4.40;;;;;;;15.16;65.38;100314.66;6222627;28;20048;-71
2023/06/05 04:23:22;;;;;;;22.67;7.45;;;;;;;15.29;63.94;100316.22;6239376;28;20039;-70
2023/06/05 04:26:26;;;;;;;15.68;5.78;;;;;;;15.38;62.49;100316.47;6239963;28;20055;-70
2023/06/05 04:29:27;;;;;;;12.25;3.72;;;;;;;15.48;61.21;100315.66;6230186;28;20071;-70
2023/06/05 04:32:27;;;;;;;11.15;4.65;;;;;;;15.64;62.94;100311.84;6275100;28;20470;-70
2023/06/05 04:35:29;;;;;;;4.65;2.35;;;;;;;15.72;62.34;100312.09;6191360;28;20155;-70
2023/06/05 04:38:29;;;;;;;4.53;2.17;;;;;;;15.81;61.61;100305.28;6185239;28;20051;-70
2023/06/05 04:41:32;;;;;;;9.13;1.88;;;;;;;15.90;61.73;100312.44;6186479;28;20050;-69
2023/06/05 04:44:33;;;;;;;4.25;1.90;;;;;;;15.97;60.53;100313.63;6183727;28;20051;-70
2023/06/05 04:47:34;;;;;;;3.13;1.60;;;;;;;16.16;60.77;100318.25;6182093;28;20062;-69
2023/06/05 04:50:37;;;;;;;5.43;1.43;;;;;;;16.30;61.72;100317.16;6193870;28;20405;-69
2023/06/05 04:53:41;;;;;;;3.05;1.52;;;;;;;16.38;59.10;100321.78;6184065;28;20315;-69
2023/06/05 04:56:45;;;;;;;5.70;1.23;;;;;;;16.52;58.98;100327.59;6187414;28;20135;-69
2023/06/05 04:59:45;;;;;;;4.47;1.60;;;;;;;16.66;58.43;100338.84;6282010;28;20109;-70
2023/06/05 05:02:46;;;;;;;2.35;1.60;;;;;;;16.69;57.27;100342.03;6179035;28;20485;-69
2023/06/05 05:05:47;;;;;;;3.08;1.80;;;;;;;16.79;56.71;100342.13;6192605;28;20047;-69
2023/06/05 05:08:48;;;;;;;4.15;1.55;;;;;;;16.91;55.31;100341.13;6183006;28;20058;-70
2023/06/05 05:11:49;;;;;;;2.08;1.38;;;;;;;17.12;57.32;100341.13;6179868;28;20046;-70
2023/06/05 05:14:50;;;;;;;1.75;1.38;;;;;;;17.11;57.48;100339.47;6286129;28;20561;-69
2023/06/05 05:17:51;;;;;;;3.28;1.50;;;;;;;17.23;57.70;100340.22;6203014;28;20061;-69
2023/06/05 05:20:53;;;;;;;8.57;1.90;;;;;;;17.39;55.79;100341.56;6183034;28;20073;-69
2023/06/05 05:23:54;;;;;;;2.20;1.35;;;;;;;17.63;56.57;100336.00;6181185;28;20520;-71
2023/06/05 05:26:54;;;;;;;2.30;1.48;;;;;;;17.78;54.65;100331.19;6183066;28;20046;-69
2023/06/05 05:29:55;;;;;;;5.35;1.63;;;;;;;18.01;55.59;100340.59;6186911;28;20072;-70
2023/06/05 05:32:58;;;;;;;6.90;1.98;;;;;;;18.17;54.39;100339.28;6184908;28;20049;-70
2023/06/05 05:36:02;;;;;;;4.80;1.58;;;;;;;18.35;54.83;100334.16;6186574;28;20051;-69
2023/06/05 05:39:07;;;;;;;3.63;2.00;;;;;;;18.45;55.46;100338.50;6198384;28;20069;-70
2023/06/05 05:42:08;;;;;;;2.40;1.48;;;;;;;18.56;57.47;100332.22;6185971;28;20046;-70
2023/06/05 05:45:09;;;;;;;7.50;1.73;;;;;;;18.71;56.87;100324.72;6250896;28;20060;-70
2023/06/05 05:48:09;;;;;;;2.55;1.52;;;;;;;18.91;54.77;100320.28;6191099;28;20050;-70
2023/06/05 05:51:10;;;;;;;2.78;1.65;;;;;;;19.07;54.43;100315.25;6194514;28;20509;-71
2023/06/05 05:54:11;;;;;;;3.33;1.80;;;;;;;19.23;53.97;100321.75;6218587;28;20041;-70
2023/06/05 05:57:11;;;;;;;3.28;1.60;;;;;;;19.41;56.64;100320.03;6282534;28;20112;-70
2023/06/05 06:00:13;;;;;;;3.33;1.58;;;;;;;19.44;54.48;100314.47;6283977;28;20047;-69
2023/06/05 06:03:16;;;;;;;3.42;1.55;;;;;;;19.66;54.69;100321.22;6190629;28;20043;-69
2023/06/05 06:06:17;;;;;;;3.22;1.73;;;;;;;19.57;52.52;100310.66;6189504;28;20139;-69
2023/06/05 06:09:18;;;;;;;3.33;1.60;;;;;;;19.77;52.04;100314.06;6183419;28;20560;-69
2023/06/05 06:12:21;;;;;;;3.90;1.90;;;;;;;19.85;52.05;100319.47;6160933;28;20058;-69
2023/06/05 06:15:22;;;;;;;5.40;1.63;;;;;;;20.21;52.79;100312.44;6218182;28;20054;-70
2023/06/05 06:18:23;;;;;;;11.63;2.07;;;;;;;20.39;53.12;100314.28;6194164;28;20050;-70
2023/06/05 06:21:23;;;;;;;4.23;2.00;;;;;;;20.62;50.96;100320.81;6188330;28;20146;-70
2023/06/05 06:24:24;;;;;;;4.47;1.60;;;;;;;20.85;52.44;100315.03;6180228;28;20050;-70
2023/06/05 06:27:28;;;;;;;3.77;1.87;;;;;;;21.06;50.96;100309.38;6181908;28;20058;-69
2023/06/05 06:30:29;;;;;;;4.80;1.75;;;;;;;21.31;49.45;100324.47;6182388;28;20289;-69
2023/06/05 06:33:31;;;;;;;4.25;1.60;;;;;;;21.40;49.47;100321.88;6177115;28;20058;-70
2023/06/05 06:36:32;;;;;;;3.10;1.25;;;;;;;21.56;48.97;100322.00;6195316;28;20054;-70
2023/06/05 06:39:33;;;;;;;1.57;1.30;;;;;;;21.73;48.43;100309.63;6180161;28;20065;-70
2023/06/05 06:42:34;;;;;;;2.03;1.27;;;;;;;21.92;48.28;100309.34;6182699;28;20513;-70
2023/06/05 06:45:35;;;;;;;2.47;1.30;;;;;;;22.12;47.33;100319.72;6175004;28;20050;-71
2023/06/05 06:48:37;;;;;;;2.87;1.73;;;;;;;22.20;47.41;100306.44;6196016;28;20537;-71
2023/06/05 06:51:38;;;;;;;4.43;1.95;;;;;;;22.40;44.66;100309.63;6202858;28;20567;-70
2023/06/05 06:54:39;;;;;;;7.10;1.50;;;;;;;22.38;45.85;100314.28;6187214;28;20061;-70
2023/06/05 06:57:40;;;;;;;3.40;1.27;;;;;;;22.54;47.21;100302.84;6199347;28;20062;-71
2023/06/05 07:00:42;;;;;;;2.65;1.48;;;;;;;22.73;45.45;100304.34;6199153;28;20547;-70
2023/06/05 07:03:43;;;;;;;2.78;1.40;;;;;;;22.83;44.08;100302.34;6256397;28;20073;-70
2023/06/05 07:06:44;;;;;;;2.63;1.10;;;;;;;22.91;44.87;100296.19;6204036;28;20580;-70
2023/06/05 07:09:45;;;;;;;4.72;1.50;;;;;;;23.28;45.34;100293.00;6284804;28;20055;-70
2023/06/05 07:12:46;;;;;;;5.20;1.70;;;;;;;23.52;45.84;100301.91;6251119;28;20594;-70
2023/06/05 07:15:47;;;;;;;3.80;1.40;;;;;;;23.67;40.12;100300.19;6184400;28;20069;-70
2023/06/05 07:18:49;;;;;;;3.20;1.10;;;;;;;23.91;44.30;100307.28;6192538;28;20062;-70
2023/06/05 07:21:50;;;;;;;3.63;1.52;;;;;;;23.90;45.43;100305.59;6182936;28;20046;-71
2023/06/05 07:24:51;;;;;;;2.33;1.50;;;;;;;24.28;43.32;100303.06;6185244;28;20065;-71
2023/06/05 07:27:51;;;;;;;1.80;1.30;;;;;;;24.44;40.72;100306.59;6194500;28;20352;-70
2023/06/05 07:30:52;;;;;;;4.87;1.43;;;;;;;24.52;43.26;100307.44;6186006;28;20180;-71
2023/06/05 07:33:53;;;;;;;2.83;1.47;;;;;;;24.76;41.37;100307.41;6192449;28;20112;-72
2023/06/05 07:36:55;;;;;;;5.07;1.53;;;;;;;24.75;39.46;100309.25;6208880;28;20057;-71
2023/06/05 07:39:58;;;;;;;2.30;1.50;;;;;;;24.82;41.12;100307.50;6185099;28;20050;-71
2023/06/05 07:42:59;;;;;;;2.22;1.35;;;;;;;24.97;41.32;100302.19;6275741;28;20059;-71
2023/06/05 07:46:04;;;;;;;1.92;1.30;;;;;;;24.89;39.41;100307.59;6262461;28;20085;-71
2023/06/05 07:49:05;;;;;;;2.22;1.42;;;;;;;25.11;40.20;100309.41;6196996;28;20062;-71
2023/06/05 07:52:06;;;;;;;2.87;1.60;;;;;;;25.26;39.35;100311.28;6201714;28;20125;-72
2023/06/05 07:55:09;;;;;;;2.60;1.53;;;;;;;25.17;39.27;100313.19;6197555;28;20070;-71
2023/06/05 07:58:10;;;;;;;2.72;1.55;;;;;;;25.53;41.09;100316.00;6184719;28;20073;-71
2023/06/05 08:01:11;;;;;;;2.93;1.60;;;;;;;25.47;38.50;100305.19;6189207;28;20050;-70
2023/06/05 08:04:12;;;;;;;2.67;1.45;;;;;;;25.74;36.98;100312.56;6219362;28;20056;-71
2023/06/05 08:07:15;;;;;;;5.15;1.70;;;;;;;25.87;37.17;100309.22;6234874;28;20048;-71
2023/06/05 08:10:16;;;;;;;4.03;1.52;;;;;;;25.82;37.96;100308.97;6247697;28;20055;-71
2023/06/05 08:13:16;;;;;;;2.30;1.70;;;;;;;25.98;37.34;100309.78;6323622;28;20139;-71
2023/06/05 08:16:19;;;;;;;2.53;1.40;;;;;;;26.11;36.77;100308.09;6323737;28;20048;-71
2023/06/05 08:19:21;;;;;;;3.10;1.70;;;;;;;26.33;39.48;100314.28;6324038;28;20044;-70
2023/06/05 08:22:22;;;;;;;2.58;1.75;;;;;;;26.10;36.82;100306.44;6235271;28;20062;-71
2023/06/05 08:25:24;;;;;;;1.55;1.33;;;;;;;26.40;38.60;100311.69;6197803;28;20137;-71
2023/06/05 08:28:25;;;;;;;8.05;1.67;;;;;;;26.48;39.14;100303.53;6189789;28;20046;-71
2023/06/05 08:31:26;;;;;;;2.83;1.60;;;;;;;26.84;36.58;100302.63;6176388;28;20066;-71
2023/06/05 08:34:27;;;;;;;4.67;1.60;;;;;;;26.78;33.56;100303.41;6206258;28;20444;-71
2023/06/05 08:37:30;;;;;;;2.33;1.40;;;;;;;26.91;39.66;100302.66;6275640;28;20851;-72
2023/06/05 08:40:33;;;;;;;1.83;1.45;;;;;;;26.79;37.24;100305.06;6185188;28;20074;-71
2023/06/05 08:43:37;;;;;;;2.53;1.63;;;;;;;26.68;36.28;100298.38;6189344;28;20382;-70
2023/06/05 08:46:41;;;;;;;3.40;1.63;;;;;;;26.79;34.05;100298.88;6194352;28;20143;-70
2023/06/05 08:49:45;;;;;;;2.38;1.33;;;;;;;26.65;34.59;100296.09;6196192;28;20073;-71
2023/06/05 08:52:49;;;;;;;2.17;1.45;;;;;;;26.80;36.45;100304.03;6196484;28;20051;-72
2023/06/05 08:55:56;;;;;;;5.65;1.70;;;;;;;27.21;34.85;100295.25;6195039;28;20144;-70
2023/06/05 08:58:57;;;;;;;3.33;1.63;;;;;;;27.62;34.79;100301.69;6196322;28;20508;-71
2023/06/05 09:01:58;;;;;;;;;;;;;;;27.84;33.13;100308.59;6190464;28;20141;-71
2023/06/05 09:05:00;;;;;;;2.60;1.60;;;;;;;27.69;32.68;100289.97;6203533;28;19929;-71
2023/06/05 09:08:01;;;;;;;2.97;1.50;;;;;;;27.50;31.89;100291.53;6194014;28;20093;-71
2023/06/05 09:11:25;;;;;;;2.10;1.40;;;;;;;27.64;32.84;100284.38;6210444;28;20050;-71
2023/06/05 09:14:26;;;;;;;4.55;1.45;;;;;;;27.60;32.90;100293.84;6197244;28;20423;-71
2023/06/05 09:17:27;;;;;;;1.70;1.50;;;;;;;27.88;32.56;100282.22;6201318;28;20145;-70
2023/06/05 09:20:29;;;;;;;3.58;1.15;;;;;;;28.38;34.32;100284.63;6194150;28;20047;-71
2023/06/05 09:23:30;;;;;;;3.10;1.60;;;;;;;28.55;33.47;100279.69;6195103;28;20422;-71
2023/06/05 09:26:55;;;;;;;1.98;1.50;;;;;;;28.18;32.32;100285.41;6203581;28;20051;-71
2023/06/05 09:30:02;;;;;;;3.42;1.63;;;;;;;28.16;32.28;100279.41;6180423;28;20062;-70
2023/06/05 09:33:09;;;;;;;3.78;1.50;;;;;;;28.67;33.19;100280.75;6177704;28;20478;-70
2023/06/05 09:36:15;;;;;;;4.43;1.67;;;;;;;28.74;33.18;100281.53;6182911;28;20057;-70
2023/06/05 09:39:24;;;;;;;2.45;1.20;;;;;;;28.66;31.61;100287.97;6186717;28;20047;-70
2023/06/05 09:42:35;;;;;;;3.22;1.30;;;;;;;28.85;32.22;100280.94;6194005;28;20046;-70
2023/06/05 09:45:45;;;;;;;3.53;1.40;;;;;;;28.97;29.88;100282.97;6201719;28;20456;-70
2023/06/05 09:48:59;;;;;;;2.03;1.38;;;;;;;29.02;33.19;100275.94;6218712;28;20181;-70
2023/06/05 09:52:03;;;;;;;7.18;1.83;;;;;;;28.66;31.32;100284.44;6299526;28;20114;-70
2023/06/05 09:55:09;;;;;;;3.75;1.48;;;;;;;28.78;31.11;100284.66;6184849;28;20482;-70
2023/06/05 09:58:13;;;;;;;3.47;1.73;;;;;;;29.03;31.04;100285.66;6196383;28;20093;-71
2023/06/05 10:01:22;;;;;;;2.75;1.63;;;;;;;29.12;32.15;100279.06;6189960;28;20050;-71
2023/06/05 10:04:28;;;;;;;5.72;1.80;;;;;;;29.42;32.05;100280.41;6187784;28;20103;-71
2023/06/05 10:07:32;;;;;;;1.50;1.25;;;;;;;29.48;30.00;100274.19;6281810;28;20051;-71
2023/06/05 10:10:35;;;;;;;1.40;1.30;;;;;;;29.49;30.21;100287.44;6178456;28;20387;-71
2023/06/05 10:13:36;;;;;;;3.40;1.70;;;;;;;29.60;30.28;100280.56;6184975;28;20067;-71
2023/06/05 10:16:38;;;;;;;2.35;1.17;;;;;;;29.82;31.84;100269.56;6198679;28;20054;-70
2023/06/05 10:19:43;;;;;;;2.33;1.27;;;;;;;29.79;29.56;100265.41;6186016;28;20050;-71
2023/06/05 10:22:45;;;;;;;3.67;1.70;;;;;;;29.53;29.74;100272.53;6283048;28;20058;-71
2023/06/05 10:25:48;;;;;;;2.17;1.52;;;;;;;29.65;29.28;100263.78;6206109;28;20047;-70
2023/06/05 10:29:14;;;;;;;1.58;1.20;;;;;;;29.44;28.90;100270.28;6214244;28;20059;-70
2023/06/05 10:32:31;;;;;;;2.25;1.48;;;;;;;29.34;27.70;100262.66;6187420;28;20050;-70
2023/06/05 10:35:38;;;;;;;1.60;1.30;;;;;;;29.34;29.76;100259.97;6190842;28;20051;-70
2023/06/05 10:38:40;;;;;;;5.10;1.65;;;;;;;29.40;29.77;100261.00;6172500;28;20418;-71
2023/06/05 10:41:43;;;;;;;4.75;1.45;;;;;;;29.79;29.77;100249.25;6185603;28;20062;-70
2023/06/05 10:44:44;;;;;;;2.85;1.92;;;;;;;29.75;27.21;100250.72;6191367;28;20058;-70
2023/06/05 10:47:49;;;;;;;2.13;1.38;;;;;;;29.64;27.77;100246.84;6226664;28;20474;-70
2023/06/05 10:50:50;;;;;;;2.72;1.58;;;;;;;30.04;28.34;100243.13;6284310;28;20058;-70
2023/06/05 10:53:51;;;;;;;2.78;1.70;;;;;;;30.06;27.99;100232.97;6203486;28;20121;-70
2023/06/05 11:00:11;;;;;;;5.57;1.83;;;;;;;29.72;28.61;100240.44;6197692;28;20522;-70
2023/06/05 11:03:11;;;;;;;3.22;1.40;;;;;;;30.24;27.80;100234.91;6276760;28;20086;-70
2023/06/05 11:06:15;;;;;;;1.88;1.30;;;;;;;30.49;29.07;100233.06;6233678;28;20042;-70
2023/06/05 11:09:15;;;;;;;1.85;1.58;;;;;;;30.42;28.90;100216.16;6190586;28;20053;-70
2023/06/05 11:12:16;;;;;;;2.58;1.50;;;;;;;30.63;27.08;100223.03;6215534;28;20417;-69
2023/06/05 11:15:26;;;;;;;1.50;1.25;;;;;;;30.63;29.25;100222.19;6288880;28;20475;-69
2023/06/05 11:18:34;;;;;;;2.20;1.60;;;;;;;30.43;27.58;100219.69;6195504;28;20047;-70
2023/06/05 11:22:09;;;;;;;3.70;1.30;;;;;;;30.58;28.83;100227.41;6202040;28;20053;-70
2023/06/05 11:25:24;;;;;;;2.55;1.42;;;;;;;30.62;28.45;100221.38;6195485;28;20081;-70
2023/06/05 11:28:42;;;;;;;2.72;1.17;;;;;;;30.46;25.86;100220.06;6196937;28;20096;-71
2023/06/05 11:31:44;;;;;;;2.95;1.50;;;;;;;30.68;27.36;100225.03;6208921;28;20105;-70
2023/06/05 11:34:56;;;;;;;2.00;1.35;;;;;;;30.85;31.08;100236.91;6193554;28;20047;-70
2023/06/05 11:38:21;;;;;;;2.45;1.45;;;;;;;30.59;27.18;100229.06;6187045;28;20050;-70
2023/06/05 11:41:24;;;;;;;2.45;1.52;;;;;;;30.50;26.75;100226.66;6195755;28;20137;-70
2023/06/05 11:44:35;;;;;;;4.47;1.60;;;;;;;30.92;30.44;100223.38;6284476;28;20051;-70
2023/06/05 11:47:36;;;;;;;1.85;1.40;;;;;;;30.74;30.07;100218.75;6192069;28;20146;-70
2023/06/05 11:50:41;;;;;;;2.60;1.27;;;;;;;30.58;27.63;100216.66;6195417;28;20051;-70
2023/06/05 11:53:47;;;;;;;2.08;1.30;;;;;;;30.52;29.64;100215.69;6203041;28;20069;-70
2023/06/05 11:56:52;;;;;;;2.92;1.45;;;;;;;31.01;28.77;100213.97;6195241;28;20054;-70
2023/06/05 11:59:52;;;;;;;1.92;1.40;;;;;;;30.92;27.73;100204.53;6244747;28;20048;-70
2023/06/05 12:02:53;;;;;;;1.95;1.52;;;;;;;31.26;26.57;100196.91;6195620;28;20050;-70
2023/06/05 12:05:54;;;;;;;;;;;;;;;31.24;28.06;100190.91;6196417;28;20065;-70
2023/06/05 12:09:08;;;;;;;2.83;1.30;;;;;;;31.09;27.35;100200.22;6229826;28;20397;-70
2023/06/05 12:12:12;;;;;;;3.70;1.58;;;;;;;31.00;27.10;100196.16;6323468;28;20415;-69
2023/06/05 12:15:22;;;;;;;2.30;1.40;;;;;;;31.22;27.74;100187.63;6310001;28;20078;-70
2023/06/05 12:18:33;;;;;;;2.13;1.58;;;;;;;30.98;27.70;100186.66;6190027;28;20502;-70
2023/06/05 12:21:34;;;;;;;2.08;1.50;;;;;;;31.08;26.57;100182.38;6194730;28;20054;-71
2023/06/05 12:24:35;;;;;;;2.50;1.50;;;;;;;30.99;25.84;100172.13;6195422;28;20043;-71
2023/06/05 12:27:41;;;;;;;2.70;1.40;;;;;;;31.07;26.07;100172.66;6202024;28;20532;-70
2023/06/05 12:30:42;;;;;;;2.35;1.27;;;;;;;31.24;26.79;100172.06;6234641;28;20047;-70
2023/06/05 12:33:47;;;;;;;5.10;1.70;;;;;;;31.03;26.25;100167.94;6180761;28;20104;-71
2023/06/05 12:36:48;;;;;;;3.72;1.55;;;;;;;31.07;28.40;100163.75;6186554;28;20520;-70
2023/06/05 12:39:49;;;;;;;1.70;1.38;;;;;;;31.33;29.90;100159.88;6190739;28;20111;-70
2023/06/05 12:42:50;;;;;;;5.47;1.55;;;;;;;31.39;25.75;100152.78;6198711;28;20038;-70
2023/06/05 12:45:51;;;;;;;2.90;1.60;;;;;;;31.46;29.35;100151.66;6300463;28;20482;-71
2023/06/05 12:48:52;;;;;;;;;;;;;;;31.19;27.19;100142.25;6202297;28;20493;-71
2023/06/05 12:51:52;;;;;;;3.03;1.80;;;;;;;30.81;26.62;100146.81;6182430;28;19952;-71
2023/06/05 12:54:53;;;;;;;;;;;;;;;30.46;26.24;100138.50;6189249;28;20054;-71
2023/06/05 12:57:54;;;;;;;2.10;1.40;;;;;;;30.92;28.85;100142.56;6217754;28;19925;-71
2023/06/05 13:00:57;;;;;;;2.92;1.50;;;;;;;30.96;26.49;100135.69;6189919;28;20288;-71
2023/06/05 13:03:58;;;;;;;1.90;1.27;;;;;;;31.00;27.35;100136.88;6196000;28;20058;-71
2023/06/05 13:07:01;;;;;;;1.98;1.60;;;;;;;31.20;25.84;100133.13;6288564;28;20107;-71
2023/06/05 13:10:05;;;;;;;3.53;1.50;;;;;;;30.86;28.71;100127.28;6201533;28;20054;-70
2023/06/05 13:13:05;;;;;;;2.58;1.50;;;;;;;30.97;25.86;100125.72;6194709;28;20490;-71
2023/06/05 13:16:07;;;;;;;3.35;1.40;;;;;;;30.69;29.67;100116.28;6200490;28;20057;-71
2023/06/05 13:19:08;;;;;;;2.55;1.58;;;;;;;30.53;26.28;100118.53;6298145;28;20080;-71
2023/06/05 13:22:09;;;;;;;3.25;1.63;;;;;;;30.31;26.52;100111.91;6194606;28;20103;-70
2023/06/05 13:25:10;;;;;;;1.75;1.50;;;;;;;30.35;25.51;100115.00;6194244;28;20133;-70
2023/06/05 13:28:13;;;;;;;3.55;1.83;;;;;;;30.74;27.91;100111.03;6194782;28;20144;-71
2023/06/05 13:31:14;;;;;;;1.85;1.65;;;;;;;30.76;26.68;100111.66;6272139;28;20091;-70
2023/06/05 13:34:14;;;;;;;2.47;1.63;;;;;;;30.35;24.84;100106.91;6321523;28;20048;-71
2023/06/05 13:37:15;;;;;;;2.45;1.30;;;;;;;29.96;25.54;100104.34;6206484;28;20053;-70
2023/06/05 13:40:16;;;;;;;2.75;1.58;;;;;;;30.20;29.12;100112.63;6286209;28;20125;-71
2023/06/05 13:43:17;;;;;;;2.78;1.67;;;;;;;30.37;27.32;100099.44;6223407;28;20036;-70
2023/06/05 13:46:18;;;;;;;2.58;1.60;;;;;;;30.29;27.39;100104.09;6301261;28;20048;-70
2023/06/05 13:49:19;;;;;;;2.53;1.70;;;;;;;29.92;26.79;100097.78;6242680;28;20111;-70
2023/06/05 13:52:24;;;;;;;2.92;1.75;;;;;;;29.89;26.96;100103.56;6263099;28;20455;-71
2023/06/05 13:55:24;;;;;;;2.15;1.58;;;;;;;30.10;27.85;100097.81;6318716;28;20055;-70
2023/06/05 13:58:25;;;;;;;5.82;1.70;;;;;;;30.03;26.12;100098.91;6313246;28;20044;-70
2023/06/05 14:01:26;;;;;;;3.15;1.35;;;;;;;30.18;26.48;100107.47;6319578;28;20135;-70
2023/06/05 14:04:26;;;;;;;2.10;1.30;;;;;;;30.01;27.87;100095.63;6317235;28;20511;-70
2023/06/05 14:07:27;;;;;;;2.10;1.58;;;;;;;30.01;27.55;100096.44;6318192;28;20054;-71
2023/06/05 14:10:28;;;;;;;1.98;1.42;;;;;;;29.96;27.32;100095.44;6252712;28;20069;-70
2023/06/05 14:13:32;;;;;;;3.45;1.80;;;;;;;29.93;26.60;100096.72;6192465;28;20123;-71
2023/06/05 14:16:34;;;;;;;2.78;1.50;;;;;;;29.80;27.10;100086.09;6192886;28;20512;-71